Yabucoa, Puerto Rico
Current Conditions -  °F | °C
As of 1:53 AM on Thursday 27 Nov 2014 (Local Time) from TJNR Reporting Station
Broken Clouds Broken Clouds  
Wind Chill: 80°   Ceiling: 7000
Heat Index: 83°   Visibility: 10mi
Dew Point: 69°   Wind: 9mph
Humidity: 69%   Direction: 80°E
Pressure: 30"   Gusts: 20mph
Location:  18.05°N, 65.88°W
Report Text: TJNR 270553Z AUTO 08008G17KT 10SM FEW027 BKN070 27/21 A3000 RMK AO2 SLP160 T02670206 10267 20261 58015 $
Loading
Personal Weather Stations






























Interactive Weather Map New forecast layout! Learn more

10-Day Weather Forecast

Advertisements
Track Severe Weather on mobile